<?xml version='1.0' encoding='UTF-8'?><gpx version="1.1" creator="JPX - https://github.com/jenetics/jpx" xmlns="http://www.topografix.com/GPX/1/1"><trk><trkseg><trkpt lat="39.5317548" lon="8.6116378"><ele>378.0</ele><time>2026-04-04T07:56:36.826Z</time></trkpt><trkpt lat="39.531774" lon="8.6115397"><ele>378.0</ele><time>2026-04-04T07:56:39.826Z</time></trkpt><trkpt lat="39.5318199" lon="8.6114762"><ele>378.0</ele><time>2026-04-04T07:56:42.825Z</time></trkpt><trkpt lat="39.5318793" lon="8.6114294"><ele>378.0</ele><time>2026-04-04T07:56:46.825Z</time></trkpt><trkpt lat="39.5319366" lon="8.6113708"><ele>378.0</ele><time>2026-04-04T07:57:18.764Z</time></trkpt><trkpt lat="39.5319697" lon="8.6112641"><ele>378.0</ele><time>2026-04-04T07:57:22.749Z</time></trkpt><trkpt lat="39.5320126" lon="8.6111946"><ele>378.0</ele><time>2026-04-04T07:57:26.836Z</time></trkpt><trkpt lat="39.5320681" lon="8.6111378"><ele>378.42857142857144</ele><time>2026-04-04T07:57:30.826Z</time></trkpt><trkpt lat="39.5321282" lon="8.6111103"><ele>378.8571428571429</ele><time>2026-04-04T07:57:35.836Z</time></trkpt><trkpt lat="39.5322047" lon="8.6110718"><ele>379.2857142857143</ele><time>2026-04-04T07:57:48.784Z</time></trkpt><trkpt lat="39.5322414" lon="8.6110053"><ele>379.7142857142857</ele><time>2026-04-04T07:57:50.826Z</time></trkpt><trkpt lat="39.5322994" lon="8.6109447"><ele>380.14285714285717</ele><time>2026-04-04T07:57:52.868Z</time></trkpt><trkpt lat="39.5323657" lon="8.6109169"><ele>380.57142857142856</ele><time>2026-04-04T07:57:54.826Z</time></trkpt><trkpt lat="39.5324342" lon="8.6108372"><ele>381.0</ele><time>2026-04-04T07:57:56.9Z</time></trkpt><trkpt lat="39.5324871" lon="8.6107831"><ele>381.0</ele><time>2026-04-04T07:57:58.843Z</time></trkpt><trkpt lat="39.5325526" lon="8.6107364"><ele>381.0</ele><time>2026-04-04T07:58:00.863Z</time></trkpt><trkpt lat="39.5326196" lon="8.6106941"><ele>381.0</ele><time>2026-04-04T07:58:03.826Z</time></trkpt><trkpt lat="39.5326851" lon="8.6106846"><ele>381.0</ele><time>2026-04-04T07:58:06.88Z</time></trkpt><trkpt lat="39.5327482" lon="8.6106736"><ele>381.0</ele><time>2026-04-04T07:58:10.826Z</time></trkpt><trkpt lat="39.5328031" lon="8.6106302"><ele>381.0</ele><time>2026-04-04T07:58:13.785Z</time></trkpt><trkpt lat="39.5328427" lon="8.6105587"><ele>381.0</ele><time>2026-04-04T07:58:17.837Z</time></trkpt><trkpt lat="39.5329064" lon="8.610539"><ele>382.0</ele><time>2026-04-04T07:58:20.106Z</time></trkpt><trkpt lat="39.5329801" lon="8.6104883"><ele>383.0</ele><time>2026-04-04T07:58:23.845Z</time></trkpt><trkpt lat="39.5330478" lon="8.6104261"><ele>384.0</ele><time>2026-04-04T07:58:27.825Z</time></trkpt><trkpt lat="39.5330964" lon="8.6103653"><ele>385.0</ele><time>2026-04-04T07:58:30.826Z</time></trkpt><trkpt lat="39.533156" lon="8.6103193"><ele>386.0</ele><time>2026-04-04T07:58:32.826Z</time></trkpt><trkpt lat="39.5332146" lon="8.610289"><ele>387.0</ele><time>2026-04-04T07:58:34.784Z</time></trkpt><trkpt lat="39.5332976" lon="8.6102502"><ele>387.0</ele><time>2026-04-04T07:58:37.826Z</time></trkpt><trkpt lat="39.5333392" lon="8.6101765"><ele>387.0</ele><time>2026-04-04T07:58:39.473Z</time></trkpt><trkpt lat="39.5333946" lon="8.6100861"><ele>387.0</ele><time>2026-04-04T07:58:41.826Z</time></trkpt><trkpt lat="39.5334569" lon="8.6100126"><ele>387.0</ele><time>2026-04-04T07:58:43.826Z</time></trkpt><trkpt lat="39.5335297" lon="8.6099332"><ele>387.0</ele><time>2026-04-04T07:58:45.826Z</time></trkpt><trkpt lat="39.5335875" lon="8.6098456"><ele>387.0</ele><time>2026-04-04T07:58:47.842Z</time></trkpt><trkpt lat="39.5336325" lon="8.6097425"><ele>387.0</ele><time>2026-04-04T07:58:49.826Z</time></trkpt><trkpt lat="39.5336727" lon="8.6096488"><ele>387.0</ele><time>2026-04-04T07:58:51.771Z</time></trkpt><trkpt lat="39.5337277" lon="8.6095624"><ele>387.0</ele><time>2026-04-04T07:58:53.825Z</time></trkpt><trkpt lat="39.5337939" lon="8.6094827"><ele>387.0</ele><time>2026-04-04T07:58:55.75Z</time></trkpt><trkpt lat="39.5338535" lon="8.6093906"><ele>387.0</ele><time>2026-04-04T07:58:57.83Z</time></trkpt><trkpt lat="39.5339105" lon="8.6093046"><ele>387.0</ele><time>2026-04-04T07:58:59.826Z</time></trkpt><trkpt lat="39.5339684" lon="8.6092176"><ele>385.42857142857144</ele><time>2026-04-04T07:59:01.826Z</time></trkpt><trkpt lat="39.5340301" lon="8.6091541"><ele>383.8571428571429</ele><time>2026-04-04T07:59:03.825Z</time></trkpt><trkpt lat="39.5340754" lon="8.6090909"><ele>382.2857142857143</ele><time>2026-04-04T07:59:05.825Z</time></trkpt><trkpt lat="39.5341371" lon="8.6090373"><ele>380.7142857142857</ele><time>2026-04-04T07:59:08.826Z</time></trkpt><trkpt lat="39.5342023" lon="8.608966"><ele>379.1428571428571</ele><time>2026-04-04T07:59:11.851Z</time></trkpt><trkpt lat="39.5342738" lon="8.6089168"><ele>377.57142857142856</ele><time>2026-04-04T07:59:14.834Z</time></trkpt><trkpt lat="39.534337" lon="8.6089148"><ele>376.0</ele><time>2026-04-04T07:59:16.826Z</time></trkpt><trkpt lat="39.5344021" lon="8.6088813"><ele>376.0</ele><time>2026-04-04T07:59:18.826Z</time></trkpt><trkpt lat="39.534473" lon="8.6088612"><ele>376.0</ele><time>2026-04-04T07:59:20.873Z</time></trkpt><trkpt lat="39.534538" lon="8.6088502"><ele>376.0</ele><time>2026-04-04T07:59:22.84Z</time></trkpt><trkpt lat="39.5346208" lon="8.6088464"><ele>376.0</ele><time>2026-04-04T07:59:25.763Z</time></trkpt><trkpt lat="39.5346975" lon="8.6088369"><ele>376.0</ele><time>2026-04-04T07:59:28.793Z</time></trkpt><trkpt lat="39.5347495" lon="8.6087854"><ele>376.0</ele><time>2026-04-04T07:59:33.763Z</time></trkpt><trkpt lat="39.534812" lon="8.6087726"><ele>376.0</ele><time>2026-04-04T07:59:38.788Z</time></trkpt><trkpt lat="39.5348821" lon="8.608775"><ele>377.0</ele><time>2026-04-04T07:59:42.832Z</time></trkpt><trkpt lat="39.5349419" lon="8.6087128"><ele>378.0</ele><time>2026-04-04T07:59:47.826Z</time></trkpt><trkpt lat="39.5349921" lon="8.6086571"><ele>379.0</ele><time>2026-04-04T07:59:51.821Z</time></trkpt><trkpt lat="39.5350472" lon="8.6086047"><ele>380.0</ele><time>2026-04-04T07:59:56.826Z</time></trkpt><trkpt lat="39.5351063" lon="8.6085465"><ele>381.0</ele><time>2026-04-04T08:00:00.824Z</time></trkpt><trkpt lat="39.5351493" lon="8.6084654"><ele>382.0</ele><time>2026-04-04T08:00:03.832Z</time></trkpt><trkpt lat="39.5351958" lon="8.608391"><ele>383.0</ele><time>2026-04-04T08:00:06.825Z</time></trkpt><trkpt lat="39.5352371" lon="8.6083121"><ele>383.0</ele><time>2026-04-04T08:00:09.826Z</time></trkpt><trkpt lat="39.5352835" lon="8.6082326"><ele>383.0</ele><time>2026-04-04T08:00:12.765Z</time></trkpt><trkpt lat="39.5353384" lon="8.6081664"><ele>383.0</ele><time>2026-04-04T08:00:15.848Z</time></trkpt><trkpt lat="39.5353863" lon="8.6081109"><ele>383.0</ele><time>2026-04-04T08:00:18.826Z</time></trkpt><trkpt lat="39.5354476" lon="8.608049"><ele>383.0</ele><time>2026-04-04T08:00:21.825Z</time></trkpt><trkpt lat="39.5355122" lon="8.6079889"><ele>383.0</ele><time>2026-04-04T08:00:24.823Z</time></trkpt><trkpt lat="39.5355641" lon="8.6079258"><ele>383.0</ele><time>2026-04-04T08:00:27.826Z</time></trkpt><trkpt lat="39.5356079" lon="8.6078568"><ele>383.0</ele><time>2026-04-04T08:00:30.826Z</time></trkpt><trkpt lat="39.5356555" lon="8.6077882"><ele>383.0</ele><time>2026-04-04T08:00:33.764Z</time></trkpt><trkpt lat="39.5357125" lon="8.607726"><ele>383.0</ele><time>2026-04-04T08:00:36.764Z</time></trkpt><trkpt lat="39.5357674" lon="8.607672"><ele>383.0</ele><time>2026-04-04T08:00:39.763Z</time></trkpt><trkpt lat="39.5358207" lon="8.6076251"><ele>383.0</ele><time>2026-04-04T08:00:42.763Z</time></trkpt><trkpt lat="39.5358758" lon="8.6075711"><ele>383.0</ele><time>2026-04-04T08:00:45.764Z</time></trkpt><trkpt lat="39.5359318" lon="8.6075256"><ele>383.0</ele><time>2026-04-04T08:00:48.764Z</time></trkpt><trkpt lat="39.5359991" lon="8.6074667"><ele>383.0</ele><time>2026-04-04T08:00:51.764Z</time></trkpt><trkpt lat="39.5360729" lon="8.607413"><ele>383.0</ele><time>2026-04-04T08:00:54.764Z</time></trkpt><trkpt lat="39.5361421" lon="8.6073806"><ele>383.0</ele><time>2026-04-04T08:00:57.764Z</time></trkpt><trkpt lat="39.5362149" lon="8.6073373"><ele>383.0</ele><time>2026-04-04T08:01:00.764Z</time></trkpt><trkpt lat="39.5362808" lon="8.6073004"><ele>383.0</ele><time>2026-04-04T08:01:03.764Z</time></trkpt><trkpt lat="39.5363588" lon="8.6072334"><ele>383.0</ele><time>2026-04-04T08:01:06.764Z</time></trkpt><trkpt lat="39.5364299" lon="8.6071665"><ele>384.7142857142857</ele><time>2026-04-04T08:01:09.764Z</time></trkpt><trkpt lat="39.5365018" lon="8.6071107"><ele>386.42857142857144</ele><time>2026-04-04T08:01:12.763Z</time></trkpt><trkpt lat="39.5365686" lon="8.6070572"><ele>388.1428571428571</ele><time>2026-04-04T08:01:15.764Z</time></trkpt><trkpt lat="39.5366161" lon="8.6069962"><ele>389.8571428571429</ele><time>2026-04-04T08:01:18.764Z</time></trkpt><trkpt lat="39.5366591" lon="8.6069346"><ele>391.5714285714286</ele><time>2026-04-04T08:01:22.764Z</time></trkpt><trkpt lat="39.5367105" lon="8.6068735"><ele>393.2857142857143</ele><time>2026-04-04T08:01:29.764Z</time></trkpt><trkpt lat="39.5367536" lon="8.6068089"><ele>395.0</ele><time>2026-04-04T08:01:32.764Z</time></trkpt><trkpt lat="39.5368" lon="8.6067222"><ele>395.0</ele><time>2026-04-04T08:01:36.764Z</time></trkpt><trkpt lat="39.536852" lon="8.6066454"><ele>395.0</ele><time>2026-04-04T08:01:39.764Z</time></trkpt><trkpt lat="39.5368887" lon="8.6065735"><ele>395.0</ele><time>2026-04-04T08:01:42.764Z</time></trkpt><trkpt lat="39.536932" lon="8.6065111"><ele>395.0</ele><time>2026-04-04T08:01:45.764Z</time></trkpt><trkpt lat="39.5369765" lon="8.6064473"><ele>395.0</ele><time>2026-04-04T08:01:48.764Z</time></trkpt><trkpt lat="39.5370296" lon="8.6063941"><ele>395.0</ele><time>2026-04-04T08:01:51.764Z</time></trkpt><trkpt lat="39.5370832" lon="8.6063439"><ele>395.0</ele><time>2026-04-04T08:01:54.763Z</time></trkpt><trkpt lat="39.5371511" lon="8.6062956"><ele>397.2857142857143</ele><time>2026-04-04T08:01:58.764Z</time></trkpt><trkpt lat="39.5372156" lon="8.6062838"><ele>399.5714285714286</ele><time>2026-04-04T08:02:03.764Z</time></trkpt><trkpt lat="39.5372718" lon="8.6062425"><ele>401.8571428571429</ele><time>2026-04-04T08:02:07.764Z</time></trkpt><trkpt lat="39.537359" lon="8.6062237"><ele>404.1428571428571</ele><time>2026-04-04T08:02:13.764Z</time></trkpt><trkpt lat="39.5374192" lon="8.6061876"><ele>406.42857142857144</ele><time>2026-04-04T08:02:18.764Z</time></trkpt><trkpt lat="39.5374949" lon="8.6061735"><ele>408.7142857142857</ele><time>2026-04-04T08:02:30.764Z</time></trkpt><trkpt lat="39.5375543" lon="8.6061441"><ele>411.0</ele><time>2026-04-04T08:02:34.764Z</time></trkpt><trkpt lat="39.5376195" lon="8.6061011"><ele>411.0</ele><time>2026-04-04T08:02:38.764Z</time></trkpt><trkpt lat="39.5376873" lon="8.6060584"><ele>411.0</ele><time>2026-04-04T08:02:42.764Z</time></trkpt><trkpt lat="39.5377561" lon="8.6060235"><ele>411.0</ele><time>2026-04-04T08:02:46.764Z</time></trkpt><trkpt lat="39.5378204" lon="8.605992"><ele>411.0</ele><time>2026-04-04T08:02:50.764Z</time></trkpt><trkpt lat="39.5378812" lon="8.6059688"><ele>411.0</ele><time>2026-04-04T08:03:00.764Z</time></trkpt><trkpt lat="39.5379434" lon="8.6060057"><ele>411.0</ele><time>2026-04-04T08:03:36.764Z</time></trkpt><trkpt lat="39.5380089" lon="8.6060025"><ele>411.0</ele><time>2026-04-04T08:03:40.764Z</time></trkpt><trkpt lat="39.5380753" lon="8.6060232"><ele>411.0</ele><time>2026-04-04T08:03:45.764Z</time></trkpt><trkpt lat="39.5381586" lon="8.6060351"><ele>411.0</ele><time>2026-04-04T08:03:49.764Z</time></trkpt><trkpt lat="39.538232" lon="8.6060469"><ele>411.0</ele><time>2026-04-04T08:03:52.764Z</time></trkpt><trkpt lat="39.5382982" lon="8.6060687"><ele>411.0</ele><time>2026-04-04T08:03:55.764Z</time></trkpt><trkpt lat="39.5383723" lon="8.6060768"><ele>411.0</ele><time>2026-04-04T08:03:58.764Z</time></trkpt><trkpt lat="39.5384436" lon="8.6060861"><ele>411.0</ele><time>2026-04-04T08:04:01.764Z</time></trkpt><trkpt lat="39.5385143" lon="8.6060907"><ele>411.0</ele><time>2026-04-04T08:04:05.764Z</time></trkpt><trkpt lat="39.5385851" lon="8.6060662"><ele>411.0</ele><time>2026-04-04T08:04:10.764Z</time></trkpt><trkpt lat="39.5386476" lon="8.6060525"><ele>411.0</ele><time>2026-04-04T08:04:13.764Z</time></trkpt><trkpt lat="39.5387348" lon="8.6060495"><ele>411.0</ele><time>2026-04-04T08:04:16.764Z</time></trkpt><trkpt lat="39.5388309" lon="8.6060509"><ele>411.0</ele><time>2026-04-04T08:04:19.764Z</time></trkpt><trkpt lat="39.5389014" lon="8.6060642"><ele>411.0</ele><time>2026-04-04T08:04:21.764Z</time></trkpt><trkpt lat="39.5389734" lon="8.6060802"><ele>411.0</ele><time>2026-04-04T08:04:23.763Z</time></trkpt><trkpt lat="39.5390447" lon="8.6060926"><ele>411.1666666666667</ele><time>2026-04-04T08:04:25.764Z</time></trkpt><trkpt lat="39.5391174" lon="8.6061107"><ele>411.33333333333337</ele><time>2026-04-04T08:04:27.764Z</time></trkpt><trkpt lat="39.5392005" lon="8.6061156"><ele>411.5</ele><time>2026-04-04T08:04:29.764Z</time></trkpt><trkpt lat="39.5392893" lon="8.6061187"><ele>411.6666666666667</ele><time>2026-04-04T08:04:31.764Z</time></trkpt><trkpt lat="39.5393864" lon="8.6061246"><ele>411.83333333333337</ele><time>2026-04-04T08:04:33.764Z</time></trkpt><trkpt lat="39.5394861" lon="8.606143"><ele>412.0</ele><time>2026-04-04T08:04:35.764Z</time></trkpt><trkpt lat="39.539579" lon="8.6061411"><ele>410.6666666666667</ele><time>2026-04-04T08:04:37.764Z</time></trkpt><trkpt lat="39.5396606" lon="8.6061407"><ele>409.33333333333337</ele><time>2026-04-04T08:04:39.764Z</time></trkpt><trkpt lat="39.5397348" lon="8.6061477"><ele>408.0</ele><time>2026-04-04T08:04:41.764Z</time></trkpt><trkpt lat="39.5398033" lon="8.606152"><ele>406.66666666666663</ele><time>2026-04-04T08:04:43.764Z</time></trkpt><trkpt lat="39.5398779" lon="8.6061607"><ele>405.3333333333333</ele><time>2026-04-04T08:04:45.764Z</time></trkpt><trkpt lat="39.5399441" lon="8.6061716"><ele>404.0</ele><time>2026-04-04T08:04:47.764Z</time></trkpt><trkpt lat="39.5400247" lon="8.6062043"><ele>404.0</ele><time>2026-04-04T08:04:50.764Z</time></trkpt><trkpt lat="39.5400899" lon="8.6062166"><ele>404.0</ele><time>2026-04-04T08:04:52.764Z</time></trkpt><trkpt lat="39.5401573" lon="8.6061975"><ele>404.0</ele><time>2026-04-04T08:04:55.764Z</time></trkpt><trkpt lat="39.5402191" lon="8.6061507"><ele>404.0</ele><time>2026-04-04T08:05:03.764Z</time></trkpt><trkpt lat="39.5402886" lon="8.6061203"><ele>404.0</ele><time>2026-04-04T08:05:07.764Z</time></trkpt><trkpt lat="39.5403615" lon="8.6060745"><ele>404.0</ele><time>2026-04-04T08:05:13.764Z</time></trkpt><trkpt lat="39.5404442" lon="8.6060478"><ele>404.0</ele><time>2026-04-04T08:05:16.764Z</time></trkpt><trkpt lat="39.540515" lon="8.6060401"><ele>402.66666666666663</ele><time>2026-04-04T08:05:18.764Z</time></trkpt><trkpt lat="39.540592" lon="8.6060483"><ele>401.3333333333333</ele><time>2026-04-04T08:05:20.763Z</time></trkpt><trkpt lat="39.5406707" lon="8.6060611"><ele>400.0</ele><time>2026-04-04T08:05:22.764Z</time></trkpt><trkpt lat="39.5407521" lon="8.606074"><ele>398.66666666666663</ele><time>2026-04-04T08:05:24.764Z</time></trkpt><trkpt lat="39.5408318" lon="8.6060783"><ele>397.3333333333333</ele><time>2026-04-04T08:05:26.764Z</time></trkpt><trkpt lat="39.5408966" lon="8.6061006"><ele>396.0</ele><time>2026-04-04T08:05:28.763Z</time></trkpt><trkpt lat="39.5409601" lon="8.6061275"><ele>391.5</ele><time>2026-04-04T08:05:30.764Z</time></trkpt><trkpt lat="39.5410266" lon="8.6061695"><ele>387.0</ele><time>2026-04-04T08:05:32.764Z</time></trkpt><trkpt lat="39.5410833" lon="8.6062366"><ele>382.5</ele><time>2026-04-04T08:05:34.764Z</time></trkpt><trkpt lat="39.5411241" lon="8.6063451"><ele>378.0</ele><time>2026-04-04T08:05:36.764Z</time></trkpt><trkpt lat="39.5411385" lon="8.6064519"><ele>373.5</ele><time>2026-04-04T08:05:38.764Z</time></trkpt><trkpt lat="39.5411305" lon="8.6065688"><ele>369.0</ele><time>2026-04-04T08:05:40.763Z</time></trkpt><trkpt lat="39.5411222" lon="8.6066811"><ele>369.0</ele><time>2026-04-04T08:05:42.764Z</time></trkpt><trkpt lat="39.5411378" lon="8.6067798"><ele>369.0</ele><time>2026-04-04T08:05:44.764Z</time></trkpt><trkpt lat="39.5411636" lon="8.6068712"><ele>369.0</ele><time>2026-04-04T08:05:46.764Z</time></trkpt><trkpt lat="39.5412017" lon="8.6069388"><ele>369.0</ele><time>2026-04-04T08:05:48.764Z</time></trkpt><trkpt lat="39.541245" lon="8.6070107"><ele>369.0</ele><time>2026-04-04T08:05:50.764Z</time></trkpt><trkpt lat="39.5412786" lon="8.6070929"><ele>369.0</ele><time>2026-04-04T08:05:52.764Z</time></trkpt><trkpt lat="39.5413094" lon="8.6071781"><ele>369.0</ele><time>2026-04-04T08:05:54.764Z</time></trkpt><trkpt lat="39.5413398" lon="8.6072724"><ele>371.1666666666667</ele><time>2026-04-04T08:05:56.763Z</time></trkpt><trkpt lat="39.5413694" lon="8.6073723"><ele>373.3333333333333</ele><time>2026-04-04T08:05:58.764Z</time></trkpt><trkpt lat="39.541394" lon="8.6074731"><ele>375.5</ele><time>2026-04-04T08:06:00.764Z</time></trkpt><trkpt lat="39.5414176" lon="8.6075759"><ele>377.66666666666663</ele><time>2026-04-04T08:06:02.764Z</time></trkpt><trkpt lat="39.5414492" lon="8.6076901"><ele>379.8333333333333</ele><time>2026-04-04T08:06:04.764Z</time></trkpt><trkpt lat="39.5414802" lon="8.6078006"><ele>382.0</ele><time>2026-04-04T08:06:06.764Z</time></trkpt><trkpt lat="39.5415113" lon="8.6078986"><ele>377.3333333333333</ele><time>2026-04-04T08:06:08.764Z</time></trkpt><trkpt lat="39.5415501" lon="8.6079878"><ele>372.66666666666663</ele><time>2026-04-04T08:06:10.763Z</time></trkpt><trkpt lat="39.541598" lon="8.6080786"><ele>368.0</ele><time>2026-04-04T08:06:12.764Z</time></trkpt><trkpt lat="39.5416736" lon="8.6081351"><ele>363.3333333333333</ele><time>2026-04-04T08:06:14.764Z</time></trkpt><trkpt lat="39.5417507" lon="8.6081521"><ele>358.6666666666667</ele><time>2026-04-04T08:06:16.764Z</time></trkpt><trkpt lat="39.5418347" lon="8.6081348"><ele>354.0</ele><time>2026-04-04T08:06:18.764Z</time></trkpt><trkpt lat="39.5419276" lon="8.6081035"><ele>354.0</ele><time>2026-04-04T08:06:20.764Z</time></trkpt><trkpt lat="39.542023" lon="8.6080787"><ele>354.0</ele><time>2026-04-04T08:06:22.764Z</time></trkpt><trkpt lat="39.5421143" lon="8.6080674"><ele>354.0</ele><time>2026-04-04T08:06:24.764Z</time></trkpt><trkpt lat="39.5422011" lon="8.6080625"><ele>354.0</ele><time>2026-04-04T08:06:26.764Z</time></trkpt><trkpt lat="39.5422786" lon="8.6080514"><ele>354.0</ele><time>2026-04-04T08:06:28.764Z</time></trkpt><trkpt lat="39.5423449" lon="8.6080365"><ele>354.0</ele><time>2026-04-04T08:06:30.763Z</time></trkpt><trkpt lat="39.5424318" lon="8.6080085"><ele>353.6666666666667</ele><time>2026-04-04T08:06:33.764Z</time></trkpt><trkpt lat="39.5425144" lon="8.6079842"><ele>353.3333333333333</ele><time>2026-04-04T08:06:36.764Z</time></trkpt><trkpt lat="39.5425931" lon="8.6079706"><ele>353.0</ele><time>2026-04-04T08:06:39.764Z</time></trkpt><trkpt lat="39.5426733" lon="8.6079533"><ele>352.66666666666663</ele><time>2026-04-04T08:06:42.764Z</time></trkpt><trkpt lat="39.5427319" lon="8.6079207"><ele>352.3333333333333</ele><time>2026-04-04T08:06:44.764Z</time></trkpt><trkpt lat="39.5428048" lon="8.6079145"><ele>352.0</ele><time>2026-04-04T08:06:47.764Z</time></trkpt><trkpt lat="39.5428858" lon="8.6079376"><ele>351.6</ele><time>2026-04-04T08:07:06.763Z</time></trkpt><trkpt lat="39.5429667" lon="8.60794"><ele>351.20000000000005</ele><time>2026-04-04T08:07:08.763Z</time></trkpt><trkpt lat="39.5430875" lon="8.6079468"><ele>350.8</ele><time>2026-04-04T08:07:10.763Z</time></trkpt><trkpt lat="39.5432045" lon="8.6079778"><ele>350.4</ele><time>2026-04-04T08:07:12.763Z</time></trkpt><trkpt lat="39.543302" lon="8.6080442"><ele>350.0</ele><time>2026-04-04T08:07:14.763Z</time></trkpt><trkpt lat="39.5433986" lon="8.6081324"><ele>350.0</ele><time>2026-04-04T08:07:16.763Z</time></trkpt><trkpt lat="39.5435076" lon="8.6081883"><ele>350.0</ele><time>2026-04-04T08:07:18.763Z</time></trkpt><trkpt lat="39.5436282" lon="8.6082534"><ele>350.0</ele><time>2026-04-04T08:07:20.763Z</time></trkpt><trkpt lat="39.5436748" lon="8.6083156"><ele>350.0</ele><time>2026-04-04T08:07:21.763Z</time></trkpt><trkpt lat="39.5437142" lon="8.6083841"><ele>350.0</ele><time>2026-04-04T08:07:22.763Z</time></trkpt><trkpt lat="39.5437474" lon="8.6084694"><ele>349.14285714285717</ele><time>2026-04-04T08:07:23.762Z</time></trkpt><trkpt lat="39.5437695" lon="8.6085504"><ele>348.2857142857143</ele><time>2026-04-04T08:07:24.762Z</time></trkpt><trkpt lat="39.5437966" lon="8.608634"><ele>347.42857142857144</ele><time>2026-04-04T08:07:25.763Z</time></trkpt><trkpt lat="39.5438257" lon="8.6087146"><ele>346.57142857142856</ele><time>2026-04-04T08:07:26.763Z</time></trkpt><trkpt lat="39.5438641" lon="8.6087902"><ele>345.7142857142857</ele><time>2026-04-04T08:07:27.763Z</time></trkpt><trkpt lat="39.5439023" lon="8.6088636"><ele>344.8571428571429</ele><time>2026-04-04T08:07:28.763Z</time></trkpt><trkpt lat="39.5439456" lon="8.6089374"><ele>344.0</ele><time>2026-04-04T08:07:29.763Z</time></trkpt><trkpt lat="39.5439974" lon="8.609008"><ele>344.0</ele><time>2026-04-04T08:07:30.763Z</time></trkpt><trkpt lat="39.5440476" lon="8.6090793"><ele>344.0</ele><time>2026-04-04T08:07:31.763Z</time></trkpt><trkpt lat="39.5441054" lon="8.609136"><ele>344.0</ele><time>2026-04-04T08:07:32.762Z</time></trkpt><trkpt lat="39.5441577" lon="8.6091817"><ele>344.0</ele><time>2026-04-04T08:07:33.763Z</time></trkpt><trkpt lat="39.5442519" lon="8.609246"><ele>344.0</ele><time>2026-04-04T08:07:35.763Z</time></trkpt><trkpt lat="39.54433" lon="8.6092953"><ele>344.0</ele><time>2026-04-04T08:07:37.763Z</time></trkpt><trkpt lat="39.5443909" lon="8.6093464"><ele>344.0</ele><time>2026-04-04T08:07:39.762Z</time></trkpt><trkpt lat="39.5444486" lon="8.6093873"><ele>344.0</ele><time>2026-04-04T08:07:42.763Z</time></trkpt><trkpt lat="39.5445206" lon="8.6094412"><ele>344.0</ele><time>2026-04-04T08:07:48.763Z</time></trkpt><trkpt lat="39.5446374" lon="8.6094602"><ele>344.0</ele><time>2026-04-04T08:07:51.763Z</time></trkpt><trkpt lat="39.5447157" lon="8.6094569"><ele>344.0</ele><time>2026-04-04T08:07:53.763Z</time></trkpt><trkpt lat="39.5447919" lon="8.6094422"><ele>344.0</ele><time>2026-04-04T08:07:55.763Z</time></trkpt><trkpt lat="39.5448589" lon="8.6095069"><ele>342.2</ele><time>2026-04-04T08:07:58.763Z</time></trkpt><trkpt lat="39.5448904" lon="8.6095949"><ele>340.4</ele><time>2026-04-04T08:08:01.763Z</time></trkpt><trkpt lat="39.544925" lon="8.609675"><ele>338.6</ele><time>2026-04-04T08:08:04.763Z</time></trkpt><trkpt lat="39.5450108" lon="8.6097402"><ele>336.8</ele><time>2026-04-04T08:09:56.763Z</time></trkpt><trkpt lat="39.5450933" lon="8.6097987"><ele>335.0</ele><time>2026-04-04T08:09:58.763Z</time></trkpt><trkpt lat="39.5451914" lon="8.6098686"><ele>335.0</ele><time>2026-04-04T08:10:00.763Z</time></trkpt><trkpt lat="39.5452685" lon="8.6099587"><ele>335.0</ele><time>2026-04-04T08:10:02.763Z</time></trkpt><trkpt lat="39.5453282" lon="8.6100564"><ele>335.0</ele><time>2026-04-04T08:10:04.763Z</time></trkpt><trkpt lat="39.5453742" lon="8.6101373"><ele>335.0</ele><time>2026-04-04T08:10:06.763Z</time></trkpt><trkpt lat="39.5453928" lon="8.610221"><ele>335.0</ele><time>2026-04-04T08:10:08.763Z</time></trkpt><trkpt lat="39.5453997" lon="8.6103299"><ele>335.0</ele><time>2026-04-04T08:10:11.762Z</time></trkpt><trkpt lat="39.5454028" lon="8.6104212"><ele>335.6666666666667</ele><time>2026-04-04T08:10:16.763Z</time></trkpt><trkpt lat="39.5454138" lon="8.6105573"><ele>336.33333333333337</ele><time>2026-04-04T08:10:49.763Z</time></trkpt><trkpt lat="39.5454419" lon="8.6106399"><ele>337.0</ele><time>2026-04-04T08:10:52.763Z</time></trkpt><trkpt lat="39.5455269" lon="8.6106781"><ele>337.6666666666667</ele><time>2026-04-04T08:10:55.762Z</time></trkpt><trkpt lat="39.5455951" lon="8.6106751"><ele>338.3333333333333</ele><time>2026-04-04T08:10:57.762Z</time></trkpt><trkpt lat="39.5456693" lon="8.610659"><ele>339.0</ele><time>2026-04-04T08:10:59.763Z</time></trkpt><trkpt lat="39.545771" lon="8.6106203"><ele>339.0</ele><time>2026-04-04T08:11:01.763Z</time></trkpt><trkpt lat="39.5458827" lon="8.6106143"><ele>339.0</ele><time>2026-04-04T08:11:03.763Z</time></trkpt><trkpt lat="39.5460058" lon="8.6106581"><ele>339.0</ele><time>2026-04-04T08:11:05.763Z</time></trkpt><trkpt lat="39.5461134" lon="8.6107301"><ele>339.0</ele><time>2026-04-04T08:11:07.763Z</time></trkpt><trkpt lat="39.5461899" lon="8.6108432"><ele>338.0</ele><time>2026-04-04T08:11:09.763Z</time></trkpt><trkpt lat="39.5462573" lon="8.6109701"><ele>337.0</ele><time>2026-04-04T08:11:11.763Z</time></trkpt><trkpt lat="39.5463127" lon="8.6110824"><ele>336.0</ele><time>2026-04-04T08:11:13.763Z</time></trkpt><trkpt lat="39.5463525" lon="8.6111955"><ele>335.0</ele><time>2026-04-04T08:11:15.763Z</time></trkpt><trkpt lat="39.5463664" lon="8.6113176"><ele>334.0</ele><time>2026-04-04T08:11:17.762Z</time></trkpt><trkpt lat="39.546367" lon="8.6114211"><ele>334.0</ele><time>2026-04-04T08:11:19.763Z</time></trkpt><trkpt lat="39.546372" lon="8.611515"><ele>334.0</ele><time>2026-04-04T08:11:21.763Z</time></trkpt><trkpt lat="39.5463947" lon="8.6116064"><ele>334.0</ele><time>2026-04-04T08:11:23.763Z</time></trkpt><trkpt lat="39.5464306" lon="8.6117101"><ele>334.0</ele><time>2026-04-04T08:11:25.763Z</time></trkpt><trkpt lat="39.5464657" lon="8.6118307"><ele>334.0</ele><time>2026-04-04T08:11:27.763Z</time></trkpt><trkpt lat="39.5464783" lon="8.6119667"><ele>334.0</ele><time>2026-04-04T08:11:29.763Z</time></trkpt><trkpt lat="39.5464851" lon="8.6120684"><ele>330.2</ele><time>2026-04-04T08:11:31.763Z</time></trkpt><trkpt lat="39.5466497" lon="8.6120773"><ele>326.4</ele><time>2026-04-04T08:12:12.763Z</time></trkpt><trkpt lat="39.5467164" lon="8.6120401"><ele>322.6</ele><time>2026-04-04T08:12:16.763Z</time></trkpt><trkpt lat="39.546797" lon="8.6120189"><ele>318.8</ele><time>2026-04-04T08:12:20.762Z</time></trkpt><trkpt lat="39.5468676" lon="8.612025"><ele>315.0</ele><time>2026-04-04T08:12:23.763Z</time></trkpt><trkpt lat="39.5469388" lon="8.6120508"><ele>315.0</ele><time>2026-04-04T08:12:26.763Z</time></trkpt><trkpt lat="39.5470097" lon="8.6121048"><ele>315.0</ele><time>2026-04-04T08:12:29.763Z</time></trkpt><trkpt lat="39.5470803" lon="8.61216"><ele>315.0</ele><time>2026-04-04T08:12:32.763Z</time></trkpt><trkpt lat="39.5471591" lon="8.6121933"><ele>315.0</ele><time>2026-04-04T08:12:35.763Z</time></trkpt><trkpt lat="39.5472294" lon="8.6122377"><ele>315.0</ele><time>2026-04-04T08:12:38.762Z</time></trkpt><trkpt lat="39.54731" lon="8.612289"><ele>315.0</ele><time>2026-04-04T08:12:41.763Z</time></trkpt><trkpt lat="39.5473989" lon="8.6123101"><ele>313.6</ele><time>2026-04-04T08:12:44.763Z</time></trkpt><trkpt lat="39.5474762" lon="8.6122442"><ele>312.2</ele><time>2026-04-04T08:12:47.763Z</time></trkpt><trkpt lat="39.5475326" lon="8.6121691"><ele>310.8</ele><time>2026-04-04T08:12:49.763Z</time></trkpt><trkpt lat="39.5476057" lon="8.6120609"><ele>309.4</ele><time>2026-04-04T08:12:51.763Z</time></trkpt><trkpt lat="39.5476812" lon="8.6119428"><ele>308.0</ele><time>2026-04-04T08:12:53.763Z</time></trkpt><trkpt lat="39.5477584" lon="8.6118602"><ele>308.1666666666667</ele><time>2026-04-04T08:12:55.763Z</time></trkpt><trkpt lat="39.5478405" lon="8.6117869"><ele>308.33333333333337</ele><time>2026-04-04T08:12:57.763Z</time></trkpt><trkpt lat="39.5479253" lon="8.6117526"><ele>308.5</ele><time>2026-04-04T08:12:59.763Z</time></trkpt><trkpt lat="39.548006" lon="8.6117401"><ele>308.6666666666667</ele><time>2026-04-04T08:13:01.763Z</time></trkpt><trkpt lat="39.5480907" lon="8.6117231"><ele>308.8333333333333</ele><time>2026-04-04T08:13:03.763Z</time></trkpt><trkpt lat="39.5481614" lon="8.611684"><ele>309.0</ele><time>2026-04-04T08:13:05.763Z</time></trkpt><trkpt lat="39.5482166" lon="8.6116155"><ele>309.0</ele><time>2026-04-04T08:13:07.763Z</time></trkpt><trkpt lat="39.5482623" lon="8.6115323"><ele>309.0</ele><time>2026-04-04T08:13:09.763Z</time></trkpt><trkpt lat="39.548309" lon="8.6114361"><ele>309.0</ele><time>2026-04-04T08:13:12.763Z</time></trkpt><trkpt lat="39.5483612" lon="8.6113442"><ele>309.0</ele><time>2026-04-04T08:13:15.763Z</time></trkpt><trkpt lat="39.5484168" lon="8.611284"><ele>309.0</ele><time>2026-04-04T08:13:18.763Z</time></trkpt><trkpt lat="39.548493" lon="8.6112061"><ele>309.0</ele><time>2026-04-04T08:13:49.763Z</time></trkpt><trkpt lat="39.5485342" lon="8.611117"><ele>310.1666666666667</ele><time>2026-04-04T08:13:51.763Z</time></trkpt><trkpt lat="39.5485561" lon="8.6109973"><ele>311.3333333333333</ele><time>2026-04-04T08:13:53.763Z</time></trkpt><trkpt lat="39.5485468" lon="8.6108929"><ele>312.5</ele><time>2026-04-04T08:13:55.763Z</time></trkpt><trkpt lat="39.5485249" lon="8.610801"><ele>313.66666666666663</ele><time>2026-04-04T08:13:58.763Z</time></trkpt><trkpt lat="39.5484701" lon="8.6107366"><ele>314.8333333333333</ele><time>2026-04-04T08:14:43.763Z</time></trkpt><trkpt lat="39.5483842" lon="8.6106968"><ele>316.0</ele><time>2026-04-04T08:14:47.762Z</time></trkpt><trkpt lat="39.5483159" lon="8.6106767"><ele>316.0</ele><time>2026-04-04T08:14:49.763Z</time></trkpt><trkpt lat="39.5482407" lon="8.6106575"><ele>316.0</ele><time>2026-04-04T08:14:51.762Z</time></trkpt><trkpt lat="39.5481719" lon="8.6106321"><ele>316.0</ele><time>2026-04-04T08:14:53.762Z</time></trkpt><trkpt lat="39.5480972" lon="8.6106096"><ele>316.0</ele><time>2026-04-04T08:14:55.763Z</time></trkpt><trkpt lat="39.5480228" lon="8.6106016"><ele>316.0</ele><time>2026-04-04T08:14:57.763Z</time></trkpt><trkpt lat="39.5479417" lon="8.6106075"><ele>316.0</ele><time>2026-04-04T08:14:59.763Z</time></trkpt><trkpt lat="39.5478537" lon="8.6106189"><ele>316.40000000000003</ele><time>2026-04-04T08:15:01.763Z</time></trkpt><trkpt lat="39.5477657" lon="8.610599"><ele>316.8</ele><time>2026-04-04T08:15:03.763Z</time></trkpt><trkpt lat="39.5476952" lon="8.6105363"><ele>317.20000000000005</ele><time>2026-04-04T08:15:05.763Z</time></trkpt><trkpt lat="39.5476436" lon="8.6104286"><ele>317.6</ele><time>2026-04-04T08:15:07.763Z</time></trkpt><trkpt lat="39.5475965" lon="8.6103098"><ele>318.0</ele><time>2026-04-04T08:15:09.763Z</time></trkpt><trkpt lat="39.5475485" lon="8.6101679"><ele>318.0</ele><time>2026-04-04T08:15:11.763Z</time></trkpt><trkpt lat="39.5475091" lon="8.6100125"><ele>318.0</ele><time>2026-04-04T08:15:13.763Z</time></trkpt><trkpt lat="39.5474689" lon="8.6098618"><ele>318.0</ele><time>2026-04-04T08:15:15.763Z</time></trkpt><trkpt lat="39.5474283" lon="8.6097101"><ele>318.0</ele><time>2026-04-04T08:15:17.763Z</time></trkpt><trkpt lat="39.5473831" lon="8.609589"><ele>318.0</ele><time>2026-04-04T08:15:19.763Z</time></trkpt><trkpt lat="39.5473478" lon="8.6094978"><ele>318.0</ele><time>2026-04-04T08:15:27.762Z</time></trkpt><trkpt lat="39.5473178" lon="8.6093917"><ele>318.0</ele><time>2026-04-04T08:15:30.763Z</time></trkpt><trkpt lat="39.5473144" lon="8.6092992"><ele>318.0</ele><time>2026-04-04T08:15:32.763Z</time></trkpt><trkpt lat="39.5473324" lon="8.6092003"><ele>318.0</ele><time>2026-04-04T08:15:34.763Z</time></trkpt><trkpt lat="39.5473704" lon="8.609104"><ele>318.0</ele><time>2026-04-04T08:15:36.763Z</time></trkpt><trkpt lat="39.5474297" lon="8.6090204"><ele>317.4</ele><time>2026-04-04T08:15:38.763Z</time></trkpt><trkpt lat="39.5475053" lon="8.6089446"><ele>316.8</ele><time>2026-04-04T08:15:40.763Z</time></trkpt><trkpt lat="39.5475879" lon="8.6088771"><ele>316.2</ele><time>2026-04-04T08:15:42.763Z</time></trkpt><trkpt lat="39.5476861" lon="8.6088056"><ele>315.6</ele><time>2026-04-04T08:15:44.763Z</time></trkpt><trkpt lat="39.5477871" lon="8.6087161"><ele>315.0</ele><time>2026-04-04T08:15:46.763Z</time></trkpt><trkpt lat="39.5478753" lon="8.6086094"><ele>309.2</ele><time>2026-04-04T08:15:48.763Z</time></trkpt><trkpt lat="39.5479575" lon="8.6085012"><ele>303.4</ele><time>2026-04-04T08:15:50.763Z</time></trkpt><trkpt lat="39.5480369" lon="8.608402"><ele>297.6</ele><time>2026-04-04T08:15:52.763Z</time></trkpt><trkpt lat="39.5481147" lon="8.6083014"><ele>291.8</ele><time>2026-04-04T08:15:54.763Z</time></trkpt><trkpt lat="39.5481573" lon="8.6082181"><ele>286.0</ele><time>2026-04-04T08:15:56.762Z</time></trkpt><trkpt lat="39.5481636" lon="8.6080503"><ele>286.0</ele><time>2026-04-04T08:16:49.763Z</time></trkpt><trkpt lat="39.5481317" lon="8.6079257"><ele>286.0</ele><time>2026-04-04T08:16:52.763Z</time></trkpt><trkpt lat="39.548077" lon="8.6078187"><ele>286.0</ele><time>2026-04-04T08:16:54.763Z</time></trkpt><trkpt lat="39.5480084" lon="8.607717"><ele>286.0</ele><time>2026-04-04T08:16:56.763Z</time></trkpt><trkpt lat="39.5479076" lon="8.6076293"><ele>286.0</ele><time>2026-04-04T08:16:58.763Z</time></trkpt><trkpt lat="39.5478119" lon="8.6075412"><ele>289.8</ele><time>2026-04-04T08:17:00.763Z</time></trkpt><trkpt lat="39.5477273" lon="8.6074454"><ele>293.6</ele><time>2026-04-04T08:17:02.763Z</time></trkpt><trkpt lat="39.5476707" lon="8.6073291"><ele>297.4</ele><time>2026-04-04T08:17:04.763Z</time></trkpt><trkpt lat="39.5476511" lon="8.6071848"><ele>301.2</ele><time>2026-04-04T08:17:06.763Z</time></trkpt><trkpt lat="39.5476551" lon="8.6071031"><ele>305.0</ele><time>2026-04-04T08:17:07.763Z</time></trkpt><trkpt lat="39.5476585" lon="8.6070202"><ele>300.0</ele><time>2026-04-04T08:17:08.762Z</time></trkpt><trkpt lat="39.5476454" lon="8.6068719"><ele>295.0</ele><time>2026-04-04T08:17:10.763Z</time></trkpt><trkpt lat="39.5475918" lon="8.6067491"><ele>290.0</ele><time>2026-04-04T08:17:12.763Z</time></trkpt><trkpt lat="39.5475082" lon="8.6066397"><ele>285.0</ele><time>2026-04-04T08:17:14.763Z</time></trkpt><trkpt lat="39.5474127" lon="8.6065546"><ele>285.0</ele><time>2026-04-04T08:17:16.763Z</time></trkpt><trkpt lat="39.5473105" lon="8.6064898"><ele>285.0</ele><time>2026-04-04T08:17:18.763Z</time></trkpt><trkpt lat="39.547214" lon="8.6064326"><ele>285.0</ele><time>2026-04-04T08:17:20.763Z</time></trkpt><trkpt lat="39.547121" lon="8.606373"><ele>285.0</ele><time>2026-04-04T08:17:22.763Z</time></trkpt><trkpt lat="39.5470426" lon="8.6063134"><ele>285.0</ele><time>2026-04-04T08:17:24.763Z</time></trkpt><trkpt lat="39.5469766" lon="8.606242"><ele>285.8333333333333</ele><time>2026-04-04T08:17:26.762Z</time></trkpt><trkpt lat="39.5469123" lon="8.6061631"><ele>286.6666666666667</ele><time>2026-04-04T08:17:28.763Z</time></trkpt><trkpt lat="39.5468425" lon="8.6060832"><ele>287.5</ele><time>2026-04-04T08:17:30.763Z</time></trkpt><trkpt lat="39.5467782" lon="8.6060105"><ele>288.33333333333337</ele><time>2026-04-04T08:17:32.763Z</time></trkpt><trkpt lat="39.5467109" lon="8.605945"><ele>289.1666666666667</ele><time>2026-04-04T08:17:34.763Z</time></trkpt><trkpt lat="39.546626" lon="8.6058924"><ele>290.0</ele><time>2026-04-04T08:17:36.763Z</time></trkpt><trkpt lat="39.5465444" lon="8.6058592"><ele>290.0</ele><time>2026-04-04T08:17:38.763Z</time></trkpt><trkpt lat="39.5464082" lon="8.6058104"><ele>290.0</ele><time>2026-04-04T08:17:48.763Z</time></trkpt><trkpt lat="39.5463552" lon="8.6057507"><ele>290.0</ele><time>2026-04-04T08:17:54.763Z</time></trkpt><trkpt lat="39.5464279" lon="8.6056997"><ele>290.0</ele><time>2026-04-04T08:17:58.763Z</time></trkpt><trkpt lat="39.5464911" lon="8.6057398"><ele>290.0</ele><time>2026-04-04T08:18:00.763Z</time></trkpt><trkpt lat="39.5465716" lon="8.6057812"><ele>290.0</ele><time>2026-04-04T08:18:02.762Z</time></trkpt><trkpt lat="39.5466741" lon="8.6058144"><ele>290.0</ele><time>2026-04-04T08:18:04.763Z</time></trkpt><trkpt lat="39.5467593" lon="8.6058602"><ele>290.0</ele><time>2026-04-04T08:18:06.763Z</time></trkpt><trkpt lat="39.5468436" lon="8.6059208"><ele>290.0</ele><time>2026-04-04T08:18:08.763Z</time></trkpt><trkpt lat="39.546933" lon="8.6059785"><ele>290.0</ele><time>2026-04-04T08:18:10.763Z</time></trkpt><trkpt lat="39.5470206" lon="8.6060367"><ele>289.1666666666667</ele><time>2026-04-04T08:18:12.762Z</time></trkpt><trkpt lat="39.5470967" lon="8.6060763"><ele>288.33333333333337</ele><time>2026-04-04T08:18:14.763Z</time></trkpt><trkpt lat="39.5471796" lon="8.6061145"><ele>287.5</ele><time>2026-04-04T08:18:17.763Z</time></trkpt><trkpt lat="39.5472401" lon="8.60614"><ele>286.6666666666667</ele><time>2026-04-04T08:18:19.763Z</time></trkpt><trkpt lat="39.5473555" lon="8.6061679"><ele>285.8333333333333</ele><time>2026-04-04T08:18:21.763Z</time></trkpt><trkpt lat="39.5474272" lon="8.6061837"><ele>285.0</ele><time>2026-04-04T08:18:22.762Z</time></trkpt><trkpt lat="39.5474883" lon="8.6062084"><ele>285.0</ele><time>2026-04-04T08:18:23.763Z</time></trkpt><trkpt lat="39.5475967" lon="8.6062226"><ele>285.0</ele><time>2026-04-04T08:18:25.762Z</time></trkpt><trkpt lat="39.5476831" lon="8.6062228"><ele>285.0</ele><time>2026-04-04T08:18:27.763Z</time></trkpt><trkpt lat="39.547769" lon="8.6062202"><ele>285.0</ele><time>2026-04-04T08:18:29.763Z</time></trkpt><trkpt lat="39.5478393" lon="8.6062542"><ele>285.0</ele><time>2026-04-04T08:18:31.763Z</time></trkpt><trkpt lat="39.5479152" lon="8.6062967"><ele>285.0</ele><time>2026-04-04T08:18:33.763Z</time></trkpt><trkpt lat="39.5480036" lon="8.6063386"><ele>279.0</ele><time>2026-04-04T08:18:35.762Z</time></trkpt><trkpt lat="39.548102" lon="8.6063666"><ele>273.0</ele><time>2026-04-04T08:18:37.763Z</time></trkpt><trkpt lat="39.5481967" lon="8.6064057"><ele>267.0</ele><time>2026-04-04T08:18:39.763Z</time></trkpt><trkpt lat="39.5482927" lon="8.6064596"><ele>261.0</ele><time>2026-04-04T08:18:41.763Z</time></trkpt><trkpt lat="39.548366" lon="8.6065158"><ele>255.0</ele><time>2026-04-04T08:18:43.763Z</time></trkpt><trkpt lat="39.5484261" lon="8.6065816"><ele>255.0</ele><time>2026-04-04T08:18:45.763Z</time></trkpt><trkpt lat="39.5484797" lon="8.6066664"><ele>255.0</ele><time>2026-04-04T08:18:47.763Z</time></trkpt><trkpt lat="39.5485073" lon="8.6067598"><ele>255.0</ele><time>2026-04-04T08:18:49.763Z</time></trkpt><trkpt lat="39.5485256" lon="8.6068424"><ele>255.0</ele><time>2026-04-04T08:18:51.763Z</time></trkpt><trkpt lat="39.5485873" lon="8.6069066"><ele>255.0</ele><time>2026-04-04T08:18:54.763Z</time></trkpt><trkpt lat="39.5486551" lon="8.60694"><ele>255.0</ele><time>2026-04-04T08:18:56.762Z</time></trkpt><trkpt lat="39.5487362" lon="8.6069869"><ele>252.66666666666666</ele><time>2026-04-04T08:18:58.763Z</time></trkpt><trkpt lat="39.5488126" lon="8.6070695"><ele>250.33333333333331</ele><time>2026-04-04T08:19:00.763Z</time></trkpt><trkpt lat="39.5488644" lon="8.6071555"><ele>248.0</ele><time>2026-04-04T08:19:02.763Z</time></trkpt><trkpt lat="39.5489427" lon="8.6072522"><ele>245.66666666666666</ele><time>2026-04-04T08:19:37.763Z</time></trkpt><trkpt lat="39.5490127" lon="8.6073005"><ele>243.33333333333331</ele><time>2026-04-04T08:19:39.762Z</time></trkpt><trkpt lat="39.5490722" lon="8.6073341"><ele>241.0</ele><time>2026-04-04T08:19:41.762Z</time></trkpt><trkpt lat="39.5491492" lon="8.6073659"><ele>240.99999999999997</ele><time>2026-04-04T08:19:52.762Z</time></trkpt><trkpt lat="39.5492216" lon="8.6073984"><ele>241.0</ele><time>2026-04-04T08:19:56.762Z</time></trkpt><trkpt lat="39.5493002" lon="8.607426"><ele>241.0</ele><time>2026-04-04T08:19:59.763Z</time></trkpt><trkpt lat="39.5493827" lon="8.607464"><ele>241.0</ele><time>2026-04-04T08:20:02.762Z</time></trkpt><trkpt lat="39.5494352" lon="8.6075144"><ele>240.99999999999997</ele><time>2026-04-04T08:20:05.763Z</time></trkpt><trkpt lat="39.5494851" lon="8.6075903"><ele>241.0</ele><time>2026-04-04T08:20:09.763Z</time></trkpt><trkpt lat="39.5495306" lon="8.6076515"><ele>239.16666666666666</ele><time>2026-04-04T08:20:12.763Z</time></trkpt><trkpt lat="39.5495905" lon="8.6077126"><ele>237.33333333333331</ele><time>2026-04-04T08:20:15.763Z</time></trkpt><trkpt lat="39.5496632" lon="8.6077812"><ele>235.5</ele><time>2026-04-04T08:20:18.763Z</time></trkpt><trkpt lat="39.5497201" lon="8.6078592"><ele>233.66666666666669</ele><time>2026-04-04T08:20:21.763Z</time></trkpt><trkpt lat="39.5497648" lon="8.6079306"><ele>231.83333333333334</ele><time>2026-04-04T08:20:31.763Z</time></trkpt><trkpt lat="39.5498072" lon="8.608004"><ele>230.0</ele><time>2026-04-04T08:20:33.762Z</time></trkpt><trkpt lat="39.5498453" lon="8.6080711"><ele>227.6</ele><time>2026-04-04T08:20:34.763Z</time></trkpt><trkpt lat="39.5498872" lon="8.6081378"><ele>225.2</ele><time>2026-04-04T08:20:35.763Z</time></trkpt><trkpt lat="39.5499592" lon="8.6082521"><ele>222.8</ele><time>2026-04-04T08:20:37.763Z</time></trkpt><trkpt lat="39.5500344" lon="8.6083501"><ele>220.4</ele><time>2026-04-04T08:20:39.763Z</time></trkpt><trkpt lat="39.5500806" lon="8.6084057"><ele>218.0</ele><time>2026-04-04T08:20:41.763Z</time></trkpt><trkpt lat="39.5501898" lon="8.6084705"><ele>218.00000000000003</ele><time>2026-04-04T08:23:40.763Z</time></trkpt><trkpt lat="39.5502871" lon="8.6085293"><ele>218.0</ele><time>2026-04-04T08:23:43.763Z</time></trkpt><trkpt lat="39.550352" lon="8.6085668"><ele>218.0</ele><time>2026-04-04T08:23:45.762Z</time></trkpt><trkpt lat="39.5504138" lon="8.6085958"><ele>218.0</ele><time>2026-04-04T08:23:47.763Z</time></trkpt><trkpt lat="39.5504746" lon="8.6086299"><ele>218.00000000000003</ele><time>2026-04-04T08:23:49.763Z</time></trkpt><trkpt lat="39.5505541" lon="8.6086723"><ele>218.0</ele><time>2026-04-04T08:23:52.763Z</time></trkpt><trkpt lat="39.5506146" lon="8.6087025"><ele>217.50000000000003</ele><time>2026-04-04T08:23:54.762Z</time></trkpt><trkpt lat="39.5506926" lon="8.608743"><ele>217.0</ele><time>2026-04-04T08:23:56.763Z</time></trkpt><trkpt lat="39.5507829" lon="8.6088041"><ele>216.5</ele><time>2026-04-04T08:23:58.762Z</time></trkpt><trkpt lat="39.5508662" lon="8.6088503"><ele>216.0</ele><time>2026-04-04T08:24:00.763Z</time></trkpt><trkpt lat="39.5509371" lon="8.6088741"><ele>215.50000000000003</ele><time>2026-04-04T08:24:02.763Z</time></trkpt><trkpt lat="39.5510065" lon="8.6088735"><ele>215.0</ele><time>2026-04-04T08:24:04.763Z</time></trkpt><trkpt lat="39.5510723" lon="8.6088887"><ele>215.00000000000003</ele><time>2026-04-04T08:24:06.762Z</time></trkpt><trkpt lat="39.5511657" lon="8.6088921"><ele>215.0</ele><time>2026-04-04T08:24:08.763Z</time></trkpt><trkpt lat="39.5512535" lon="8.608888"><ele>215.0</ele><time>2026-04-04T08:24:10.763Z</time></trkpt><trkpt lat="39.5513259" lon="8.6088905"><ele>215.0</ele><time>2026-04-04T08:24:13.763Z</time></trkpt><trkpt lat="39.5514164" lon="8.6088454"><ele>215.00000000000003</ele><time>2026-04-04T08:24:25.763Z</time></trkpt><trkpt lat="39.5514765" lon="8.6088186"><ele>215.0</ele><time>2026-04-04T08:24:27.762Z</time></trkpt><trkpt lat="39.5515705" lon="8.6087958"><ele>213.83333333333334</ele><time>2026-04-04T08:24:30.763Z</time></trkpt><trkpt lat="39.5516535" lon="8.6087703"><ele>212.66666666666669</ele><time>2026-04-04T08:24:32.763Z</time></trkpt><trkpt lat="39.5517436" lon="8.6087599"><ele>211.5</ele><time>2026-04-04T08:24:34.763Z</time></trkpt><trkpt lat="39.5518177" lon="8.6087728"><ele>210.33333333333331</ele><time>2026-04-04T08:24:36.763Z</time></trkpt><trkpt lat="39.5519098" lon="8.6087929"><ele>209.16666666666666</ele><time>2026-04-04T08:24:38.763Z</time></trkpt><trkpt lat="39.5519983" lon="8.6087853"><ele>208.0</ele><time>2026-04-04T08:24:40.763Z</time></trkpt><trkpt lat="39.5520695" lon="8.6087773"><ele>205.99999999999997</ele><time>2026-04-04T08:24:42.763Z</time></trkpt><trkpt lat="39.5521461" lon="8.6087725"><ele>204.0</ele><time>2026-04-04T08:24:44.763Z</time></trkpt><trkpt lat="39.5522412" lon="8.6087953"><ele>202.0</ele><time>2026-04-04T08:24:47.763Z</time></trkpt><trkpt lat="39.5523151" lon="8.6088238"><ele>200.0</ele><time>2026-04-04T08:24:49.763Z</time></trkpt><trkpt lat="39.5523982" lon="8.6088591"><ele>197.99999999999997</ele><time>2026-04-04T08:24:51.762Z</time></trkpt><trkpt lat="39.5524658" lon="8.6088972"><ele>196.0</ele><time>2026-04-04T08:24:53.762Z</time></trkpt><trkpt lat="39.5525397" lon="8.6089278"><ele>195.99999999999997</ele><time>2026-04-04T08:24:55.763Z</time></trkpt><trkpt lat="39.5526075" lon="8.6089188"><ele>196.0</ele><time>2026-04-04T08:24:57.763Z</time></trkpt><trkpt lat="39.5526709" lon="8.6088706"><ele>196.0</ele><time>2026-04-04T08:24:59.762Z</time></trkpt><trkpt lat="39.5527345" lon="8.6088342"><ele>196.0</ele><time>2026-04-04T08:25:01.763Z</time></trkpt><trkpt lat="39.5528297" lon="8.6088216"><ele>195.99999999999997</ele><time>2026-04-04T08:25:03.763Z</time></trkpt><trkpt lat="39.5529357" lon="8.6088073"><ele>196.0</ele><time>2026-04-04T08:25:05.763Z</time></trkpt><trkpt lat="39.5530316" lon="8.6087883"><ele>193.60000000000002</ele><time>2026-04-04T08:25:07.763Z</time></trkpt><trkpt lat="39.5531315" lon="8.6087896"><ele>191.2</ele><time>2026-04-04T08:25:09.762Z</time></trkpt><trkpt lat="39.5532306" lon="8.608806"><ele>188.8</ele><time>2026-04-04T08:25:11.763Z</time></trkpt><trkpt lat="39.5533189" lon="8.6088265"><ele>186.39999999999998</ele><time>2026-04-04T08:25:13.763Z</time></trkpt><trkpt lat="39.5533908" lon="8.6088619"><ele>184.0</ele><time>2026-04-04T08:25:15.763Z</time></trkpt><trkpt lat="39.5535168" lon="8.6088466"><ele>184.0</ele><time>2026-04-04T08:26:18.763Z</time></trkpt><trkpt lat="39.5535728" lon="8.6087896"><ele>184.0</ele><time>2026-04-04T08:26:21.763Z</time></trkpt><trkpt lat="39.5536471" lon="8.6087646"><ele>184.0</ele><time>2026-04-04T08:26:25.763Z</time></trkpt><trkpt lat="39.5537084" lon="8.6087164"><ele>184.0</ele><time>2026-04-04T08:26:31.763Z</time></trkpt><trkpt lat="39.553753" lon="8.6086498"><ele>184.0</ele><time>2026-04-04T08:26:36.763Z</time></trkpt><trkpt lat="39.5537823" lon="8.6085704"><ele>184.0</ele><time>2026-04-04T08:26:45.764Z</time></trkpt><trkpt lat="39.5537933" lon="8.6084857"><ele>184.0</ele><time>2026-04-04T08:27:04.764Z</time></trkpt><trkpt lat="39.5537889" lon="8.6084006"><ele>180.85714285714286</ele><time>2026-04-04T08:27:15.763Z</time></trkpt><trkpt lat="39.5538269" lon="8.6083311"><ele>177.7142857142857</ele><time>2026-04-04T08:28:19.764Z</time></trkpt><trkpt lat="39.5538355" lon="8.6082361"><ele>174.57142857142856</ele><time>2026-04-04T08:28:23.764Z</time></trkpt><trkpt lat="39.5538649" lon="8.6081496"><ele>171.42857142857144</ele><time>2026-04-04T08:28:26.764Z</time></trkpt><trkpt lat="39.5539069" lon="8.6080786"><ele>168.28571428571428</ele><time>2026-04-04T08:28:29.764Z</time></trkpt><trkpt lat="39.5539512" lon="8.6080191"><ele>165.14285714285714</ele><time>2026-04-04T08:28:39.764Z</time></trkpt><trkpt lat="39.5540166" lon="8.6080198"><ele>162.0</ele><time>2026-04-04T08:30:42.764Z</time></trkpt><trkpt lat="39.5540841" lon="8.6080251"><ele>162.0</ele><time>2026-04-04T08:30:48.764Z</time></trkpt><trkpt lat="39.5541563" lon="8.6079975"><ele>162.0</ele><time>2026-04-04T08:31:01.764Z</time></trkpt><trkpt lat="39.5542251" lon="8.607967"><ele>162.0</ele><time>2026-04-04T08:31:06.764Z</time></trkpt><trkpt lat="39.5542754" lon="8.6079135"><ele>162.0</ele><time>2026-04-04T08:31:14.764Z</time></trkpt><trkpt lat="39.5543367" lon="8.6078571"><ele>162.0</ele><time>2026-04-04T08:31:18.764Z</time></trkpt><trkpt lat="39.5543871" lon="8.6078064"><ele>162.0</ele><time>2026-04-04T08:31:20.764Z</time></trkpt><trkpt lat="39.554439" lon="8.6077468"><ele>162.0</ele><time>2026-04-04T08:31:22.764Z</time></trkpt><trkpt lat="39.5544944" lon="8.6076795"><ele>161.28571428571428</ele><time>2026-04-04T08:31:25.764Z</time></trkpt><trkpt lat="39.5545427" lon="8.6076199"><ele>160.57142857142856</ele><time>2026-04-04T08:31:29.764Z</time></trkpt><trkpt lat="39.5545837" lon="8.6075531"><ele>159.85714285714283</ele><time>2026-04-04T08:31:34.764Z</time></trkpt><trkpt lat="39.5546373" lon="8.6075024"><ele>159.14285714285714</ele><time>2026-04-04T08:31:41.763Z</time></trkpt><trkpt lat="39.554701" lon="8.6074492"><ele>158.42857142857142</ele><time>2026-04-04T08:31:44.764Z</time></trkpt><trkpt lat="39.5547616" lon="8.6073887"><ele>157.7142857142857</ele><time>2026-04-04T08:31:47.764Z</time></trkpt><trkpt lat="39.5548098" lon="8.607328"><ele>157.0</ele><time>2026-04-04T08:31:50.763Z</time></trkpt><trkpt lat="39.554858" lon="8.6072645"><ele>157.0</ele><time>2026-04-04T08:31:53.764Z</time></trkpt><trkpt lat="39.5548795" lon="8.607179"><ele>157.0</ele><time>2026-04-04T08:32:34.764Z</time></trkpt><trkpt lat="39.5549004" lon="8.6070945"><ele>157.0</ele><time>2026-04-04T08:32:40.763Z</time></trkpt><trkpt lat="39.5549212" lon="8.6069962"><ele>157.0</ele><time>2026-04-04T08:32:44.764Z</time></trkpt><trkpt lat="39.5549266" lon="8.6068875"><ele>157.0</ele><time>2026-04-04T08:32:47.764Z</time></trkpt><trkpt lat="39.5549315" lon="8.6067711"><ele>157.0</ele><time>2026-04-04T08:32:50.764Z</time></trkpt><trkpt lat="39.5549439" lon="8.6066665"><ele>157.99999999999997</ele><time>2026-04-04T08:32:53.763Z</time></trkpt><trkpt lat="39.5549477" lon="8.6065455"><ele>159.0</ele><time>2026-04-04T08:32:58.413Z</time></trkpt><trkpt lat="39.5549463" lon="8.6064563"><ele>160.0</ele><time>2026-04-04T08:33:01.764Z</time></trkpt><trkpt lat="39.5549391" lon="8.6063646"><ele>161.0</ele><time>2026-04-04T08:33:17.764Z</time></trkpt><trkpt lat="39.5549882" lon="8.6063082"><ele>162.0</ele><time>2026-04-04T08:33:22.763Z</time></trkpt><trkpt lat="39.5550537" lon="8.6062556"><ele>162.99999999999997</ele><time>2026-04-04T08:33:26.763Z</time></trkpt><trkpt lat="39.5551073" lon="8.6062042"><ele>164.0</ele><time>2026-04-04T08:34:04.763Z</time></trkpt><trkpt lat="39.5551744" lon="8.6061728"><ele>164.85714285714283</ele><time>2026-04-04T08:34:10.763Z</time></trkpt><trkpt lat="39.5552298" lon="8.6061087"><ele>165.71428571428572</ele><time>2026-04-04T08:34:15.763Z</time></trkpt><trkpt lat="39.5552328" lon="8.6060259"><ele>166.57142857142856</ele><time>2026-04-04T08:34:18.763Z</time></trkpt><trkpt lat="39.5552073" lon="8.6059426"><ele>167.42857142857142</ele><time>2026-04-04T08:34:21.763Z</time></trkpt><trkpt lat="39.5551905" lon="8.6058586"><ele>168.28571428571428</ele><time>2026-04-04T08:34:25.763Z</time></trkpt><trkpt lat="39.5551842" lon="8.6057591"><ele>169.14285714285714</ele><time>2026-04-04T08:34:29.763Z</time></trkpt><trkpt lat="39.5551586" lon="8.605666"><ele>170.0</ele><time>2026-04-04T08:34:33.762Z</time></trkpt><trkpt lat="39.5551132" lon="8.6055809"><ele>170.0</ele><time>2026-04-04T08:34:37.763Z</time></trkpt><trkpt lat="39.5550678" lon="8.6054862"><ele>170.0</ele><time>2026-04-04T08:34:41.763Z</time></trkpt><trkpt lat="39.5550239" lon="8.6054078"><ele>170.0</ele><time>2026-04-04T08:34:44.762Z</time></trkpt><trkpt lat="39.5549983" lon="8.6053177"><ele>170.0</ele><time>2026-04-04T08:34:48.762Z</time></trkpt><trkpt lat="39.5549922" lon="8.6052165"><ele>170.0</ele><time>2026-04-04T08:34:52.762Z</time></trkpt><trkpt lat="39.55498" lon="8.6051348"><ele>170.0</ele><time>2026-04-04T08:34:56.763Z</time></trkpt><trkpt lat="39.554976" lon="8.6050471"><ele>170.0</ele><time>2026-04-04T08:35:00.763Z</time></trkpt><trkpt lat="39.5549631" lon="8.6049583"><ele>170.57142857142858</ele><time>2026-04-04T08:35:15.763Z</time></trkpt><trkpt lat="39.5549359" lon="8.6048692"><ele>171.14285714285714</ele><time>2026-04-04T08:35:19.763Z</time></trkpt><trkpt lat="39.5549099" lon="8.6047761"><ele>171.71428571428572</ele><time>2026-04-04T08:35:58.763Z</time></trkpt><trkpt lat="39.5548958" lon="8.604689"><ele>172.28571428571428</ele><time>2026-04-04T08:36:01.763Z</time></trkpt><trkpt lat="39.5548884" lon="8.6045988"><ele>172.85714285714286</ele><time>2026-04-04T08:36:04.763Z</time></trkpt><trkpt lat="39.5548698" lon="8.6045033"><ele>173.42857142857142</ele><time>2026-04-04T08:36:08.763Z</time></trkpt><trkpt lat="39.5548672" lon="8.6044155"><ele>174.0</ele><time>2026-04-04T08:36:12.763Z</time></trkpt><trkpt lat="39.55486" lon="8.604332"><ele>174.28571428571428</ele><time>2026-04-04T08:36:16.763Z</time></trkpt><trkpt lat="39.5548852" lon="8.6042322"><ele>174.57142857142858</ele><time>2026-04-04T08:36:58.763Z</time></trkpt><trkpt lat="39.5549186" lon="8.6041497"><ele>174.85714285714286</ele><time>2026-04-04T08:37:01.763Z</time></trkpt><trkpt lat="39.5549446" lon="8.604071"><ele>175.14285714285714</ele><time>2026-04-04T08:37:04.763Z</time></trkpt><trkpt lat="39.5549563" lon="8.6039797"><ele>175.42857142857142</ele><time>2026-04-04T08:37:08.763Z</time></trkpt><trkpt lat="39.5549841" lon="8.603897"><ele>175.71428571428572</ele><time>2026-04-04T08:37:11.763Z</time></trkpt><trkpt lat="39.5550134" lon="8.6038164"><ele>176.0</ele><time>2026-04-04T08:37:14.865Z</time></trkpt><trkpt lat="39.5550346" lon="8.6037188"><ele>177.14285714285714</ele><time>2026-04-04T08:37:18.891Z</time></trkpt><trkpt lat="39.5550674" lon="8.6036365"><ele>178.28571428571428</ele><time>2026-04-04T08:37:22.763Z</time></trkpt><trkpt lat="39.5551077" lon="8.6035452"><ele>179.42857142857144</ele><time>2026-04-04T08:37:26.763Z</time></trkpt><trkpt lat="39.5551564" lon="8.6034713"><ele>180.57142857142856</ele><time>2026-04-04T08:37:30.763Z</time></trkpt><trkpt lat="39.5552044" lon="8.6034169"><ele>181.7142857142857</ele><time>2026-04-04T08:37:34.763Z</time></trkpt><trkpt lat="39.5552609" lon="8.6033434"><ele>182.85714285714286</ele><time>2026-04-04T08:37:38.763Z</time></trkpt><trkpt lat="39.5553147" lon="8.603273"><ele>184.0</ele><time>2026-04-04T08:37:42.763Z</time></trkpt><trkpt lat="39.5553228" lon="8.6031858"><ele>184.0</ele><time>2026-04-04T08:39:04.763Z</time></trkpt><trkpt lat="39.5553387" lon="8.6030884"><ele>184.0</ele><time>2026-04-04T08:39:09.763Z</time></trkpt><trkpt lat="39.5553508" lon="8.6029833"><ele>184.0</ele><time>2026-04-04T08:39:14.763Z</time></trkpt><trkpt lat="39.5553624" lon="8.6028957"><ele>184.0</ele><time>2026-04-04T08:39:17.763Z</time></trkpt><trkpt lat="39.5553607" lon="8.6027983"><ele>184.0</ele><time>2026-04-04T08:39:21.763Z</time></trkpt><trkpt lat="39.5553609" lon="8.6027007"><ele>184.0</ele><time>2026-04-04T08:39:26.762Z</time></trkpt><trkpt lat="39.555361" lon="8.6026135"><ele>184.0</ele><time>2026-04-04T08:39:30.763Z</time></trkpt><trkpt lat="39.5553727" lon="8.6025231"><ele>185.42857142857144</ele><time>2026-04-04T08:39:35.763Z</time></trkpt><trkpt lat="39.5553643" lon="8.6024338"><ele>186.85714285714283</ele><time>2026-04-04T08:39:42.763Z</time></trkpt><trkpt lat="39.5553221" lon="8.6023626"><ele>188.28571428571428</ele><time>2026-04-04T08:39:58.763Z</time></trkpt><trkpt lat="39.5553134" lon="8.6022772"><ele>189.71428571428572</ele><time>2026-04-04T08:40:20.795Z</time></trkpt><trkpt lat="39.5553306" lon="8.6021836"><ele>191.14285714285717</ele><time>2026-04-04T08:40:27.923Z</time></trkpt><trkpt lat="39.5553401" lon="8.6020986"><ele>192.57142857142856</ele><time>2026-04-04T08:40:34.881Z</time></trkpt><trkpt lat="39.5553501" lon="8.602008"><ele>194.0</ele><time>2026-04-04T08:40:45.836Z</time></trkpt><trkpt lat="39.5553484" lon="8.6019124"><ele>195.57142857142856</ele><time>2026-04-04T08:42:36.976Z</time></trkpt><trkpt lat="39.5553658" lon="8.601826"><ele>197.14285714285717</ele><time>2026-04-04T08:42:49.763Z</time></trkpt><trkpt lat="39.5553605" lon="8.6017381"><ele>198.71428571428572</ele><time>2026-04-04T08:42:54.763Z</time></trkpt><trkpt lat="39.5553375" lon="8.6016473"><ele>200.28571428571428</ele><time>2026-04-04T08:42:59.763Z</time></trkpt><trkpt lat="39.5553051" lon="8.601573"><ele>201.85714285714283</ele><time>2026-04-04T08:43:12.763Z</time></trkpt><trkpt lat="39.5552812" lon="8.6014922"><ele>203.42857142857144</ele><time>2026-04-04T08:43:20.763Z</time></trkpt><trkpt lat="39.555274" lon="8.6014045"><ele>205.0</ele><time>2026-04-04T08:43:40.763Z</time></trkpt><trkpt lat="39.555262" lon="8.6014997"><ele>204.99999999999997</ele><time>2026-04-04T08:44:10.762Z</time></trkpt><trkpt lat="39.5552856" lon="8.6016239"><ele>205.0</ele><time>2026-04-04T08:44:13.763Z</time></trkpt><trkpt lat="39.5553098" lon="8.6017125"><ele>205.0</ele><time>2026-04-04T08:44:15.763Z</time></trkpt><trkpt lat="39.5553307" lon="8.6017988"><ele>205.0</ele><time>2026-04-04T08:44:17.763Z</time></trkpt><trkpt lat="39.5553287" lon="8.6018843"><ele>204.99999999999997</ele><time>2026-04-04T08:44:20.762Z</time></trkpt><trkpt lat="39.5553359" lon="8.6019818"><ele>205.0</ele><time>2026-04-04T08:44:23.762Z</time></trkpt><trkpt lat="39.5554079" lon="8.6020026"><ele>203.71428571428572</ele><time>2026-04-04T08:44:27.763Z</time></trkpt><trkpt lat="39.5554371" lon="8.6019279"><ele>202.42857142857142</ele><time>2026-04-04T08:46:40.762Z</time></trkpt><trkpt lat="39.5554426" lon="8.6018413"><ele>201.14285714285714</ele><time>2026-04-04T08:46:49.763Z</time></trkpt><trkpt lat="39.5554812" lon="8.6017501"><ele>199.85714285714286</ele><time>2026-04-04T08:46:53.763Z</time></trkpt><trkpt lat="39.5555296" lon="8.6016849"><ele>198.57142857142856</ele><time>2026-04-04T08:46:57.763Z</time></trkpt><trkpt lat="39.555588" lon="8.601618"><ele>197.28571428571428</ele><time>2026-04-04T08:47:02.896Z</time></trkpt><trkpt lat="39.5556363" lon="8.6015508"><ele>196.0</ele><time>2026-04-04T08:47:08.89Z</time></trkpt><trkpt lat="39.5556852" lon="8.6014933"><ele>196.0</ele><time>2026-04-04T08:47:13.922Z</time></trkpt><trkpt lat="39.5557263" lon="8.601427"><ele>196.0</ele><time>2026-04-04T08:47:26.82Z</time></trkpt><trkpt lat="39.5557796" lon="8.6013633"><ele>196.0</ele><time>2026-04-04T08:47:33.821Z</time></trkpt><trkpt lat="39.5558024" lon="8.6012791"><ele>196.0</ele><time>2026-04-04T08:47:47.909Z</time></trkpt><trkpt lat="39.5558198" lon="8.6011932"><ele>196.0</ele><time>2026-04-04T08:47:55.776Z</time></trkpt><trkpt lat="39.5557981" lon="8.6011132"><ele>196.0</ele><time>2026-04-04T08:48:40.177Z</time></trkpt><trkpt lat="39.5557536" lon="8.6010526"><ele>196.0</ele><time>2026-04-04T08:48:48.886Z</time></trkpt><trkpt lat="39.5557398" lon="8.60096"><ele>197.28571428571428</ele><time>2026-04-04T08:48:57.441Z</time></trkpt><trkpt lat="39.5556814" lon="8.6009146"><ele>198.57142857142856</ele><time>2026-04-04T08:49:07.889Z</time></trkpt><trkpt lat="39.5556336" lon="8.6008463"><ele>199.85714285714286</ele><time>2026-04-04T08:49:19.842Z</time></trkpt><trkpt lat="39.5555875" lon="8.600777"><ele>201.14285714285714</ele><time>2026-04-04T08:49:27.922Z</time></trkpt><trkpt lat="39.5555527" lon="8.6007079"><ele>202.42857142857142</ele><time>2026-04-04T08:49:35.597Z</time></trkpt><trkpt lat="39.5555133" lon="8.6006442"><ele>203.71428571428572</ele><time>2026-04-04T08:51:43.883Z</time></trkpt><trkpt lat="39.5555119" lon="8.6005576"><ele>205.0</ele><time>2026-04-04T08:51:52.842Z</time></trkpt><trkpt lat="39.5554945" lon="8.600474"><ele>205.0</ele><time>2026-04-04T08:52:01.136Z</time></trkpt><trkpt lat="39.5554889" lon="8.6003886"><ele>205.0</ele><time>2026-04-04T08:52:11.873Z</time></trkpt><trkpt lat="39.5554687" lon="8.600303"><ele>205.0</ele><time>2026-04-04T08:52:18.456Z</time></trkpt><trkpt lat="39.5554698" lon="8.6002205"><ele>205.0</ele><time>2026-04-04T08:52:25.865Z</time></trkpt><trkpt lat="39.5554967" lon="8.6001445"><ele>205.0</ele><time>2026-04-04T08:52:34.396Z</time></trkpt><trkpt lat="39.5555268" lon="8.600066"><ele>205.0</ele><time>2026-04-04T08:52:41.868Z</time></trkpt><trkpt lat="39.5555451" lon="8.5999872"><ele>205.0</ele><time>2026-04-04T08:52:48.807Z</time></trkpt><trkpt lat="39.5555837" lon="8.5999145"><ele>206.85714285714286</ele><time>2026-04-04T08:52:58.88Z</time></trkpt><trkpt lat="39.555614" lon="8.5998331"><ele>208.7142857142857</ele><time>2026-04-04T08:53:07.517Z</time></trkpt><trkpt lat="39.5556589" lon="8.5997639"><ele>210.57142857142856</ele><time>2026-04-04T08:53:40.763Z</time></trkpt><trkpt lat="39.5556946" lon="8.5996834"><ele>212.42857142857144</ele><time>2026-04-04T08:53:44.763Z</time></trkpt><trkpt lat="39.555735" lon="8.5995984"><ele>214.28571428571428</ele><time>2026-04-04T08:53:48.763Z</time></trkpt><trkpt lat="39.5557895" lon="8.5995293"><ele>216.14285714285714</ele><time>2026-04-04T08:53:53.763Z</time></trkpt><trkpt lat="39.5558342" lon="8.5994605"><ele>218.0</ele><time>2026-04-04T08:53:57.763Z</time></trkpt><trkpt lat="39.5558726" lon="8.5993944"><ele>219.83333333333334</ele><time>2026-04-04T08:54:01.763Z</time></trkpt><trkpt lat="39.5559039" lon="8.5993033"><ele>221.66666666666669</ele><time>2026-04-04T08:54:06.762Z</time></trkpt><trkpt lat="39.5559197" lon="8.5992213"><ele>223.5</ele><time>2026-04-04T08:54:11.763Z</time></trkpt><trkpt lat="39.5559351" lon="8.5990953"><ele>225.33333333333331</ele><time>2026-04-04T08:54:52.862Z</time></trkpt><trkpt lat="39.5558963" lon="8.5989941"><ele>227.16666666666666</ele><time>2026-04-04T08:55:35.763Z</time></trkpt><trkpt lat="39.5558777" lon="8.5989067"><ele>229.0</ele><time>2026-04-04T08:55:38.763Z</time></trkpt><trkpt lat="39.5558881" lon="8.5988053"><ele>229.0</ele><time>2026-04-04T08:55:42.763Z</time></trkpt><trkpt lat="39.555907" lon="8.5987181"><ele>229.0</ele><time>2026-04-04T08:55:45.762Z</time></trkpt><trkpt lat="39.5559353" lon="8.5986302"><ele>229.0</ele><time>2026-04-04T08:55:49.763Z</time></trkpt><trkpt lat="39.5559673" lon="8.5985435"><ele>229.0</ele><time>2026-04-04T08:55:53.763Z</time></trkpt><trkpt lat="39.5560258" lon="8.5984815"><ele>229.0</ele><time>2026-04-04T08:55:57.763Z</time></trkpt><trkpt lat="39.556083" lon="8.5984206"><ele>229.0</ele><time>2026-04-04T08:56:02.763Z</time></trkpt><trkpt lat="39.5561307" lon="8.5983498"><ele>229.0</ele><time>2026-04-04T08:56:05.763Z</time></trkpt><trkpt lat="39.556176" lon="8.5982893"><ele>228.42857142857142</ele><time>2026-04-04T08:56:08.763Z</time></trkpt><trkpt lat="39.5562194" lon="8.5982272"><ele>227.8571428571429</ele><time>2026-04-04T08:56:11.763Z</time></trkpt><trkpt lat="39.5562705" lon="8.59815"><ele>227.2857142857143</ele><time>2026-04-04T08:56:15.763Z</time></trkpt><trkpt lat="39.5563149" lon="8.5980771"><ele>226.71428571428572</ele><time>2026-04-04T08:56:19.763Z</time></trkpt><trkpt lat="39.5563411" lon="8.5979829"><ele>226.14285714285717</ele><time>2026-04-04T08:56:23.763Z</time></trkpt><trkpt lat="39.5563664" lon="8.5979024"><ele>225.5714285714286</ele><time>2026-04-04T08:56:33.763Z</time></trkpt><trkpt lat="39.5563932" lon="8.5978166"><ele>225.00000000000003</ele><time>2026-04-04T08:56:39.763Z</time></trkpt><trkpt lat="39.5564283" lon="8.5977482"><ele>223.8571428571429</ele><time>2026-04-04T08:56:46.173Z</time></trkpt><trkpt lat="39.5564712" lon="8.5976732"><ele>222.71428571428572</ele><time>2026-04-04T08:57:00.876Z</time></trkpt><trkpt lat="39.5564712" lon="8.5975851"><ele>221.57142857142858</ele><time>2026-04-04T08:57:09.824Z</time></trkpt><trkpt lat="39.5565059" lon="8.5975051"><ele>220.42857142857144</ele><time>2026-04-04T08:57:13.762Z</time></trkpt><trkpt lat="39.5565278" lon="8.5974187"><ele>219.28571428571428</ele><time>2026-04-04T08:57:33.011Z</time></trkpt><trkpt lat="39.5565554" lon="8.5973318"><ele>218.14285714285714</ele><time>2026-04-04T08:57:37.71Z</time></trkpt><trkpt lat="39.5565971" lon="8.597269"><ele>217.0</ele><time>2026-04-04T08:57:41.83Z</time></trkpt><trkpt lat="39.5566276" lon="8.5971751"><ele>217.0</ele><time>2026-04-04T08:57:46.853Z</time></trkpt><trkpt lat="39.5566265" lon="8.5970807"><ele>217.0</ele><time>2026-04-04T08:57:50.851Z</time></trkpt><trkpt lat="39.5566162" lon="8.5969884"><ele>217.0</ele><time>2026-04-04T08:57:55.802Z</time></trkpt><trkpt lat="39.556619" lon="8.5968895"><ele>217.0</ele><time>2026-04-04T08:57:59.762Z</time></trkpt><trkpt lat="39.5566386" lon="8.5967988"><ele>217.0</ele><time>2026-04-04T08:58:04.762Z</time></trkpt><trkpt lat="39.5566881" lon="8.5967214"><ele>217.0</ele><time>2026-04-04T08:58:20.763Z</time></trkpt><trkpt lat="39.5567279" lon="8.5966501"><ele>217.0</ele><time>2026-04-04T08:58:39.763Z</time></trkpt><trkpt lat="39.5567682" lon="8.5965839"><ele>217.28571428571428</ele><time>2026-04-04T08:58:45.763Z</time></trkpt><trkpt lat="39.556799" lon="8.5965001"><ele>217.57142857142856</ele><time>2026-04-04T08:58:49.763Z</time></trkpt><trkpt lat="39.556821" lon="8.5964127"><ele>217.85714285714286</ele><time>2026-04-04T08:59:02.763Z</time></trkpt><trkpt lat="39.556841" lon="8.5963262"><ele>218.14285714285714</ele><time>2026-04-04T08:59:06.763Z</time></trkpt><trkpt lat="39.5568614" lon="8.5962392"><ele>218.42857142857142</ele><time>2026-04-04T08:59:11.763Z</time></trkpt><trkpt lat="39.5568795" lon="8.5961607"><ele>218.71428571428572</ele><time>2026-04-04T08:59:17.763Z</time></trkpt><trkpt lat="39.5569178" lon="8.5960791"><ele>219.0</ele><time>2026-04-04T08:59:22.763Z</time></trkpt><trkpt lat="39.5569391" lon="8.5959945"><ele>220.0</ele><time>2026-04-04T08:59:26.763Z</time></trkpt><trkpt lat="39.5569609" lon="8.5958997"><ele>221.0</ele><time>2026-04-04T08:59:30.763Z</time></trkpt><trkpt lat="39.5569739" lon="8.595809"><ele>222.0</ele><time>2026-04-04T08:59:36.763Z</time></trkpt><trkpt lat="39.5569935" lon="8.5957219"><ele>223.0</ele><time>2026-04-04T08:59:41.762Z</time></trkpt><trkpt lat="39.5570065" lon="8.5956329"><ele>224.0</ele><time>2026-04-04T08:59:46.763Z</time></trkpt><trkpt lat="39.5570179" lon="8.595546"><ele>225.0</ele><time>2026-04-04T08:59:49.763Z</time></trkpt><trkpt lat="39.5570217" lon="8.5954347"><ele>226.0</ele><time>2026-04-04T08:59:52.763Z</time></trkpt><trkpt lat="39.5570336" lon="8.5953322"><ele>226.0</ele><time>2026-04-04T08:59:56.763Z</time></trkpt><trkpt lat="39.5570355" lon="8.5952453"><ele>226.0</ele><time>2026-04-04T09:00:00.831Z</time></trkpt><trkpt lat="39.5570411" lon="8.5951557"><ele>226.0</ele><time>2026-04-04T09:00:18.76Z</time></trkpt><trkpt lat="39.5570482" lon="8.595071"><ele>226.0</ele><time>2026-04-04T09:00:21.95Z</time></trkpt><trkpt lat="39.5570392" lon="8.594987"><ele>226.0</ele><time>2026-04-04T09:00:46.82Z</time></trkpt><trkpt lat="39.5570428" lon="8.5948906"><ele>226.0</ele><time>2026-04-04T09:00:49.787Z</time></trkpt><trkpt lat="39.5570419" lon="8.5947682"><ele>226.0</ele><time>2026-04-04T09:00:52.859Z</time></trkpt><trkpt lat="39.5570234" lon="8.5946734"><ele>225.99999999999997</ele><time>2026-04-04T09:00:55.763Z</time></trkpt><trkpt lat="39.5569779" lon="8.5945781"><ele>226.0</ele><time>2026-04-04T09:00:58.763Z</time></trkpt><trkpt lat="39.5569318" lon="8.5944812"><ele>226.0</ele><time>2026-04-04T09:01:01.763Z</time></trkpt><trkpt lat="39.556911" lon="8.5943863"><ele>226.0</ele><time>2026-04-04T09:01:04.763Z</time></trkpt><trkpt lat="39.556962" lon="8.594321"><ele>225.99999999999997</ele><time>2026-04-04T09:01:08.763Z</time></trkpt><trkpt lat="39.5570122" lon="8.594268"><ele>226.0</ele><time>2026-04-04T09:01:11.763Z</time></trkpt><trkpt lat="39.5570574" lon="8.5941904"><ele>221.99999999999997</ele><time>2026-04-04T09:01:16.763Z</time></trkpt><trkpt lat="39.5570737" lon="8.5940949"><ele>218.0</ele><time>2026-04-04T09:01:19.763Z</time></trkpt><trkpt lat="39.557081" lon="8.5940065"><ele>214.0</ele><time>2026-04-04T09:01:21.762Z</time></trkpt><trkpt lat="39.5570956" lon="8.5939002"><ele>210.0</ele><time>2026-04-04T09:01:23.763Z</time></trkpt><trkpt lat="39.5570944" lon="8.5937732"><ele>205.99999999999997</ele><time>2026-04-04T09:01:25.763Z</time></trkpt><trkpt lat="39.5570971" lon="8.5936373"><ele>202.0</ele><time>2026-04-04T09:01:27.762Z</time></trkpt><trkpt lat="39.5570994" lon="8.5935198"><ele>201.99999999999997</ele><time>2026-04-04T09:01:29.763Z</time></trkpt><trkpt lat="39.5570986" lon="8.5934239"><ele>202.0</ele><time>2026-04-04T09:01:31.763Z</time></trkpt><trkpt lat="39.5571025" lon="8.5933291"><ele>202.0</ele><time>2026-04-04T09:01:33.762Z</time></trkpt><trkpt lat="39.5570925" lon="8.5932186"><ele>202.0</ele><time>2026-04-04T09:01:35.763Z</time></trkpt><trkpt lat="39.5570789" lon="8.5931073"><ele>201.99999999999997</ele><time>2026-04-04T09:01:37.763Z</time></trkpt><trkpt lat="39.5570717" lon="8.5929875"><ele>202.0</ele><time>2026-04-04T09:01:39.762Z</time></trkpt><trkpt lat="39.5570589" lon="8.5928861"><ele>203.33333333333331</ele><time>2026-04-04T09:01:41.763Z</time></trkpt><trkpt lat="39.5570337" lon="8.592795"><ele>204.66666666666666</ele><time>2026-04-04T09:01:43.762Z</time></trkpt><trkpt lat="39.5570052" lon="8.592715"><ele>206.0</ele><time>2026-04-04T09:01:45.763Z</time></trkpt><trkpt lat="39.5569801" lon="8.5926178"><ele>207.33333333333331</ele><time>2026-04-04T09:01:48.763Z</time></trkpt><trkpt lat="39.5569532" lon="8.5925114"><ele>208.66666666666666</ele><time>2026-04-04T09:01:51.762Z</time></trkpt><trkpt lat="39.5569225" lon="8.5924091"><ele>210.0</ele><time>2026-04-04T09:01:54.763Z</time></trkpt><trkpt lat="39.5568882" lon="8.5923075"><ele>210.0</ele><time>2026-04-04T09:01:57.763Z</time></trkpt><trkpt lat="39.5568565" lon="8.5922153"><ele>210.0</ele><time>2026-04-04T09:02:00.763Z</time></trkpt><trkpt lat="39.5568433" lon="8.592132"><ele>210.0</ele><time>2026-04-04T09:02:03.763Z</time></trkpt><trkpt lat="39.5568367" lon="8.5920294"><ele>210.0</ele><time>2026-04-04T09:02:07.763Z</time></trkpt><trkpt lat="39.5568332" lon="8.5919439"><ele>210.0</ele><time>2026-04-04T09:02:09.763Z</time></trkpt><trkpt lat="39.5568349" lon="8.5918543"><ele>210.0</ele><time>2026-04-04T09:02:11.763Z</time></trkpt><trkpt lat="39.5568427" lon="8.5917555"><ele>210.0</ele><time>2026-04-04T09:02:14.762Z</time></trkpt><trkpt lat="39.5568577" lon="8.5916565"><ele>209.85714285714286</ele><time>2026-04-04T09:03:02.763Z</time></trkpt><trkpt lat="39.556869" lon="8.5915649"><ele>209.71428571428572</ele><time>2026-04-04T09:03:07.763Z</time></trkpt><trkpt lat="39.5568823" lon="8.5914847"><ele>209.57142857142856</ele><time>2026-04-04T09:03:45.763Z</time></trkpt><trkpt lat="39.5568881" lon="8.591388"><ele>209.42857142857144</ele><time>2026-04-04T09:03:50.763Z</time></trkpt><trkpt lat="39.5568922" lon="8.5912881"><ele>209.28571428571428</ele><time>2026-04-04T09:03:53.763Z</time></trkpt><trkpt lat="39.5568855" lon="8.5911887"><ele>209.14285714285714</ele><time>2026-04-04T09:03:56.763Z</time></trkpt><trkpt lat="39.5568755" lon="8.5910998"><ele>209.0</ele><time>2026-04-04T09:04:03.763Z</time></trkpt><trkpt lat="39.5568811" lon="8.5910019"><ele>209.0</ele><time>2026-04-04T09:04:07.763Z</time></trkpt><trkpt lat="39.5568757" lon="8.5909115"><ele>209.0</ele><time>2026-04-04T09:04:10.763Z</time></trkpt><trkpt lat="39.5568768" lon="8.5908204"><ele>209.0</ele><time>2026-04-04T09:04:13.762Z</time></trkpt><trkpt lat="39.5568679" lon="8.5907388"><ele>209.0</ele><time>2026-04-04T09:04:16.763Z</time></trkpt><trkpt lat="39.5568596" lon="8.590637"><ele>209.0</ele><time>2026-04-04T09:04:19.763Z</time></trkpt><trkpt lat="39.5568478" lon="8.590551"><ele>209.0</ele><time>2026-04-04T09:04:22.763Z</time></trkpt><trkpt lat="39.5568579" lon="8.5904639"><ele>209.0</ele><time>2026-04-04T09:04:27.763Z</time></trkpt></trkseg></trk></gpx>